sensor_id;sensor_type;location;lat;lon;timestamp;pressure;altitude;pressure_sealevel;temperature;humidity
64516;BME280;50891;37.380;-122.076;2022-09-09T00:04:37;99970.31;;;37.67;19.71
64516;BME280;50891;37.380;-122.076;2022-09-09T00:15:14;99945.22;;;37.56;19.28
64516;BME280;50891;37.380;-122.076;2022-09-09T00:21:06;99963.81;;;37.71;19.69
64516;BME280;50891;37.380;-122.076;2022-09-09T00:23:39;99955.66;;;37.63;19.70
64516;BME280;50891;37.380;-122.076;2022-09-09T00:32:00;99959.69;;;37.65;20.28
64516;BME280;50891;37.380;-122.076;2022-09-09T00:34:31;99971.13;;;37.67;20.22
64516;BME280;50891;37.380;-122.076;2022-09-09T00:36:58;99960.59;;;37.69;20.55
64516;BME280;50891;37.380;-122.076;2022-09-09T00:39:32;99971.56;;;37.69;20.71
64516;BME280;50891;37.380;-122.076;2022-09-09T00:42:14;99960.78;;;37.64;20.65
64516;BME280;50891;37.380;-122.076;2022-09-09T00:45:01;99957.56;;;37.62;20.67
64516;BME280;50891;37.380;-122.076;2022-09-09T00:47:51;99967.91;;;37.65;20.67
64516;BME280;50891;37.380;-122.076;2022-09-09T00:56:20;99960.41;;;37.74;20.32
64516;BME280;50891;37.380;-122.076;2022-09-09T00:59:01;99959.75;;;37.78;20.61
64516;BME280;50891;37.380;-122.076;2022-09-09T01:01:31;99961.34;;;37.79;20.11
64516;BME280;50891;37.380;-122.076;2022-09-09T01:03:57;99950.56;;;37.73;20.01
64516;BME280;50891;37.380;-122.076;2022-09-09T01:06:29;99952.66;;;37.77;20.48
64516;BME280;50891;37.380;-122.076;2022-09-09T01:09:05;99952.31;;;37.78;20.56
64516;BME280;50891;37.380;-122.076;2022-09-09T01:17:28;99941.53;;;37.94;20.49
64516;BME280;50891;37.380;-122.076;2022-09-09T01:28:16;99934.03;;;38.03;20.81
64516;BME280;50891;37.380;-122.076;2022-09-09T01:30:45;99936.09;;;38.06;20.78
64516;BME280;50891;37.380;-122.076;2022-09-09T01:33:15;99931.09;;;38.08;21.08
64516;BME280;50891;37.380;-122.076;2022-09-09T01:38:18;99930.41;;;38.11;21.15
64516;BME280;50891;37.380;-122.076;2022-09-09T01:40:44;99925.84;;;38.15;21.07
64516;BME280;50891;37.380;-122.076;2022-09-09T01:43:11;99930.69;;;38.19;21.26
64516;BME280;50891;37.380;-122.076;2022-09-09T01:45:38;99928.25;;;38.17;21.50
64516;BME280;50891;37.380;-122.076;2022-09-09T01:48:05;99920.81;;;38.17;21.29
64516;BME280;50891;37.380;-122.076;2022-09-09T01:50:31;99922.78;;;38.17;21.65
64516;BME280;50891;37.380;-122.076;2022-09-09T01:52:59;99921.97;;;38.16;21.66
64516;BME280;50891;37.380;-122.076;2022-09-09T01:55:37;99925.50;;;38.17;21.60
64516;BME280;50891;37.380;-122.076;2022-09-09T02:00:37;99929.19;;;38.21;21.96
64516;BME280;50891;37.380;-122.076;2022-09-09T02:03:33;99927.72;;;38.24;21.39
64516;BME280;50891;37.380;-122.076;2022-09-09T02:09:11;99925.44;;;38.26;21.65
64516;BME280;50891;37.380;-122.076;2022-09-09T02:11:38;99914.84;;;38.15;22.29
64516;BME280;50891;37.380;-122.076;2022-09-09T02:14:10;99934.81;;;38.25;22.58
64516;BME280;50891;37.380;-122.076;2022-09-09T02:16:42;99928.84;;;38.23;22.82
64516;BME280;50891;37.380;-122.076;2022-09-09T02:19:15;99924.50;;;38.22;22.72
64516;BME280;50891;37.380;-122.076;2022-09-09T02:21:44;99927.25;;;38.22;23.00
64516;BME280;50891;37.380;-122.076;2022-09-09T02:24:14;99923.72;;;38.21;22.72
64516;BME280;50891;37.380;-122.076;2022-09-09T02:26:42;99922.09;;;38.20;23.10
64516;BME280;50891;37.380;-122.076;2022-09-09T02:29:25;99913.59;;;38.13;23.35
64516;BME280;50891;37.380;-122.076;2022-09-09T02:31:53;99924.03;;;38.20;23.33
64516;BME280;50891;37.380;-122.076;2022-09-09T02:34:23;99915.78;;;38.20;23.55
64516;BME280;50891;37.380;-122.076;2022-09-09T02:36:54;99928.72;;;38.19;23.41
64516;BME280;50891;37.380;-122.076;2022-09-09T02:39:22;99924.25;;;38.14;23.83
64516;BME280;50891;37.380;-122.076;2022-09-09T02:41:48;99927.22;;;38.09;24.25
64516;BME280;50891;37.380;-122.076;2022-09-09T02:44:16;99925.81;;;38.03;24.86
64516;BME280;50891;37.380;-122.076;2022-09-09T02:49:11;99934.22;;;37.98;24.82
64516;BME280;50891;37.380;-122.076;2022-09-09T02:54:27;99947.44;;;37.84;25.02
64516;BME280;50891;37.380;-122.076;2022-09-09T02:59:28;99966.03;;;37.78;24.93
64516;BME280;50891;37.380;-122.076;2022-09-09T03:01:55;99967.03;;;37.73;25.05
64516;BME280;50891;37.380;-122.076;2022-09-09T03:04:22;99964.00;;;37.66;24.91
64516;BME280;50891;37.380;-122.076;2022-09-09T03:06:50;99974.03;;;37.62;24.64
64516;BME280;50891;37.380;-122.076;2022-09-09T03:09:16;99968.56;;;37.62;24.39
64516;BME280;50891;37.380;-122.076;2022-09-09T03:11:42;99964.91;;;37.58;24.37
64516;BME280;50891;37.380;-122.076;2022-09-09T03:14:08;99970.38;;;37.58;24.56
64516;BME280;50891;37.380;-122.076;2022-09-09T03:16:37;99969.09;;;37.56;24.35
64516;BME280;50891;37.380;-122.076;2022-09-09T03:19:03;99952.03;;;37.41;23.90
64516;BME280;50891;37.380;-122.076;2022-09-09T03:21:29;99975.88;;;37.49;23.81
64516;BME280;50891;37.380;-122.076;2022-09-09T03:23:56;99974.47;;;37.43;23.95
64516;BME280;50891;37.380;-122.076;2022-09-09T03:26:22;99969.31;;;37.42;23.74
64516;BME280;50891;37.380;-122.076;2022-09-09T03:28:49;99976.44;;;37.34;23.69
64516;BME280;50891;37.380;-122.076;2022-09-09T03:31:17;99969.88;;;37.26;23.38
64516;BME280;50891;37.380;-122.076;2022-09-09T03:33:45;99968.44;;;37.20;23.42
64516;BME280;50891;37.380;-122.076;2022-09-09T03:36:11;99973.00;;;37.16;23.37
64516;BME280;50891;37.380;-122.076;2022-09-09T03:38:37;99975.91;;;37.11;23.30
64516;BME280;50891;37.380;-122.076;2022-09-09T03:41:04;99976.06;;;37.06;23.62
64516;BME280;50891;37.380;-122.076;2022-09-09T03:43:31;99984.97;;;37.03;23.72
64516;BME280;50891;37.380;-122.076;2022-09-09T03:45:58;99991.91;;;37.00;23.34
64516;BME280;50891;37.380;-122.076;2022-09-09T03:48:25;99993.22;;;36.94;23.73
64516;BME280;50891;37.380;-122.076;2022-09-09T03:50:54;100001.63;;;36.89;23.69
64516;BME280;50891;37.380;-122.076;2022-09-09T03:53:26;100009.34;;;36.87;23.79
64516;BME280;50891;37.380;-122.076;2022-09-09T03:55:54;100010.16;;;36.87;23.57
64516;BME280;50891;37.380;-122.076;2022-09-09T03:58:22;100020.31;;;36.87;23.57
64516;BME280;50891;37.380;-122.076;2022-09-09T04:01:18;100023.38;;;36.85;23.93
64516;BME280;50891;37.380;-122.076;2022-09-09T04:03:44;100034.22;;;36.82;23.75
64516;BME280;50891;37.380;-122.076;2022-09-09T04:06:12;100032.75;;;36.84;23.96
64516;BME280;50891;37.380;-122.076;2022-09-09T04:08:40;100028.88;;;36.85;23.99
64516;BME280;50891;37.380;-122.076;2022-09-09T04:11:07;100032.75;;;36.84;24.05
64516;BME280;50891;37.380;-122.076;2022-09-09T04:13:35;100035.66;;;36.79;23.67
64516;BME280;50891;37.380;-122.076;2022-09-09T04:16:04;100022.94;;;36.75;24.05
64516;BME280;50891;37.380;-122.076;2022-09-09T04:18:31;100038.09;;;36.72;24.11
64516;BME280;50891;37.380;-122.076;2022-09-09T04:20:58;100033.44;;;36.64;24.00
64516;BME280;50891;37.380;-122.076;2022-09-09T04:23:25;100027.91;;;36.55;24.55
64516;BME280;50891;37.380;-122.076;2022-09-09T06:42:01;99971.25;;;32.36;30.06
64516;BME280;50891;37.380;-122.076;2022-09-09T06:44:28;99965.00;;;32.54;29.77
64516;BME280;50891;37.380;-122.076;2022-09-09T06:46:55;99961.72;;;32.71;29.72
64516;BME280;50891;37.380;-122.076;2022-09-09T06:49:21;99961.72;;;32.85;29.71
64516;BME280;50891;37.380;-122.076;2022-09-09T06:51:47;99958.53;;;32.97;29.49
64516;BME280;50891;37.380;-122.076;2022-09-09T06:54:15;99963.00;;;33.07;29.48
64516;BME280;50891;37.380;-122.076;2022-09-09T06:56:42;99971.56;;;33.14;29.31
64516;BME280;50891;37.380;-122.076;2022-09-09T06:59:10;99970.56;;;33.24;29.33
64516;BME280;50891;37.380;-122.076;2022-09-09T07:01:38;99977.81;;;33.28;29.35
64516;BME280;50891;37.380;-122.076;2022-09-09T07:04:07;99975.84;;;33.34;28.93
64516;BME280;50891;37.380;-122.076;2022-09-09T07:06:43;99981.16;;;33.39;29.03
64516;BME280;50891;37.380;-122.076;2022-09-09T07:09:11;99971.06;;;33.40;28.89
64516;BME280;50891;37.380;-122.076;2022-09-09T07:11:45;99971.88;;;33.40;29.35
64516;BME280;50891;37.380;-122.076;2022-09-09T07:14:12;99970.25;;;33.39;29.33
64516;BME280;50891;37.380;-122.076;2022-09-09T07:16:42;99969.13;;;33.40;29.36
64516;BME280;50891;37.380;-122.076;2022-09-09T07:19:09;99960.97;;;33.40;29.32
64516;BME280;50891;37.380;-122.076;2022-09-09T07:21:36;99959.88;;;33.41;29.54
64516;BME280;50891;37.380;-122.076;2022-09-09T07:24:02;99966.41;;;33.40;29.55
64516;BME280;50891;37.380;-122.076;2022-09-09T07:26:30;99966.63;;;33.44;29.58
64516;BME280;50891;37.380;-122.076;2022-09-09T07:28:56;99976.13;;;33.46;29.50
64516;BME280;50891;37.380;-122.076;2022-09-09T07:31:26;99968.44;;;33.48;29.56
64516;BME280;50891;37.380;-122.076;2022-09-09T07:33:53;99971.06;;;33.53;29.16
64516;BME280;50891;37.380;-122.076;2022-09-09T07:36:26;99964.81;;;33.53;29.12
64516;BME280;50891;37.380;-122.076;2022-09-09T07:38:56;99970.03;;;33.49;29.25
64516;BME280;50891;37.380;-122.076;2022-09-09T07:41:25;99966.50;;;33.49;29.55
64516;BME280;50891;37.380;-122.076;2022-09-09T07:43:53;99967.44;;;33.44;29.41
64516;BME280;50891;37.380;-122.076;2022-09-09T07:46:24;99970.44;;;33.43;29.30
64516;BME280;50891;37.380;-122.076;2022-09-09T07:48:53;99958.25;;;33.40;29.29
64516;BME280;50891;37.380;-122.076;2022-09-09T07:51:24;99966.75;;;33.38;29.60
64516;BME280;50891;37.380;-122.076;2022-09-09T07:53:59;99964.31;;;33.37;29.96
64516;BME280;50891;37.380;-122.076;2022-09-09T07:56:28;99964.00;;;33.38;30.14
64516;BME280;50891;37.380;-122.076;2022-09-09T07:58:56;99952.72;;;33.31;29.97
64516;BME280;50891;37.380;-122.076;2022-09-09T08:01:30;99961.28;;;33.38;30.19
64516;BME280;50891;37.380;-122.076;2022-09-09T08:04:02;99955.31;;;33.36;30.60
64516;BME280;50891;37.380;-122.076;2022-09-09T08:06:35;99949.06;;;33.36;30.50
64516;BME280;50891;37.380;-122.076;2022-09-09T08:09:03;99948.16;;;33.41;30.56
64516;BME280;50891;37.380;-122.076;2022-09-09T08:11:30;99933.13;;;33.43;30.71
64516;BME280;50891;37.380;-122.076;2022-09-09T08:13:57;99929.38;;;33.39;30.68
64516;BME280;50891;37.380;-122.076;2022-09-09T08:16:28;99932.78;;;33.45;30.81
64516;BME280;50891;37.380;-122.076;2022-09-09T08:18:55;99920.00;;;33.45;30.58
64516;BME280;50891;37.380;-122.076;2022-09-09T08:21:24;99918.88;;;33.46;30.77
64516;BME280;50891;37.380;-122.076;2022-09-09T08:23:53;99925.13;;;33.47;30.61
64516;BME280;50891;37.380;-122.076;2022-09-09T08:26:25;99923.00;;;33.44;30.66
64516;BME280;50891;37.380;-122.076;2022-09-09T08:28:55;99926.53;;;33.44;30.76
64516;BME280;50891;37.380;-122.076;2022-09-09T08:31:25;99923.81;;;33.44;30.71
64516;BME280;50891;37.380;-122.076;2022-09-09T08:33:54;99928.25;;;33.40;30.58
64516;BME280;50891;37.380;-122.076;2022-09-09T08:36:22;99928.38;;;33.35;30.69
64516;BME280;50891;37.380;-122.076;2022-09-09T08:38:51;99921.44;;;33.29;31.06
64516;BME280;50891;37.380;-122.076;2022-09-09T08:41:43;99921.44;;;33.29;31.01
64516;BME280;50891;37.380;-122.076;2022-09-09T08:50:21;99910.22;;;33.16;31.04
64516;BME280;50891;37.380;-122.076;2022-09-09T08:58:17;99907.78;;;33.01;31.31
64516;BME280;50891;37.380;-122.076;2022-09-09T09:09:43;99883.94;;;32.79;31.81
64516;BME280;50891;37.380;-122.076;2022-09-09T09:12:22;99893.94;;;32.84;31.87
64516;BME280;50891;37.380;-122.076;2022-09-09T09:14:50;99887.47;;;32.80;31.79
64516;BME280;50891;37.380;-122.076;2022-09-09T09:17:21;99891.09;;;32.75;31.71
64516;BME280;50891;37.380;-122.076;2022-09-09T09:19:49;99865.19;;;32.64;31.76
64516;BME280;50891;37.380;-122.076;2022-09-09T09:22:41;99874.56;;;32.71;31.59
64516;BME280;50891;37.380;-122.076;2022-09-09T09:25:32;99864.28;;;32.68;31.73
64516;BME280;50891;37.380;-122.076;2022-09-09T09:28:13;99857.91;;;32.59;31.83
64516;BME280;50891;37.380;-122.076;2022-09-09T09:30:57;99859.81;;;32.59;31.77
64516;BME280;50891;37.380;-122.076;2022-09-09T09:33:38;99842.63;;;32.44;31.77
64516;BME280;50891;37.380;-122.076;2022-09-09T09:36:12;99857.50;;;32.52;31.59
64516;BME280;50891;37.380;-122.076;2022-09-09T09:38:56;99858.38;;;32.47;31.56
64516;BME280;50891;37.380;-122.076;2022-09-09T09:41:54;99851.91;;;32.43;31.54
64516;BME280;50891;37.380;-122.076;2022-09-09T09:44:30;99848.06;;;32.44;31.51
64516;BME280;50891;37.380;-122.076;2022-09-09T09:49:35;99854.94;;;32.42;31.42
64516;BME280;50891;37.380;-122.076;2022-09-09T09:52:02;99856.34;;;32.39;31.35
64516;BME280;50891;37.380;-122.076;2022-09-09T09:54:37;99850.69;;;32.36;31.50
64516;BME280;50891;37.380;-122.076;2022-09-09T09:57:14;99854.00;;;32.32;31.45
64516;BME280;50891;37.380;-122.076;2022-09-09T09:59:42;99849.97;;;32.30;31.24
64516;BME280;50891;37.380;-122.076;2022-09-09T10:02:23;99851.09;;;32.29;31.29
64516;BME280;50891;37.380;-122.076;2022-09-09T10:05:06;99847.84;;;32.27;31.34
64516;BME280;50891;37.380;-122.076;2022-09-09T10:07:38;99816.78;;;32.14;31.34
64516;BME280;50891;37.380;-122.076;2022-09-09T10:10:05;99837.25;;;32.25;31.46
64516;BME280;50891;37.380;-122.076;2022-09-09T10:24:28;99813.06;;;32.10;31.34
64516;BME280;50891;37.380;-122.076;2022-09-09T10:27:33;99809.50;;;32.09;31.16
64516;BME280;50891;37.380;-122.076;2022-09-09T10:30:18;99810.91;;;32.07;31.11
64516;BME280;50891;37.380;-122.076;2022-09-09T10:35:19;99815.31;;;32.03;30.96
64516;BME280;50891;37.380;-122.076;2022-09-09T10:38:15;99809.88;;;32.03;31.15
64516;BME280;50891;37.380;-122.076;2022-09-09T10:46:14;99820.06;;;31.97;31.18
64516;BME280;50891;37.380;-122.076;2022-09-09T10:54:36;99819.31;;;31.91;30.96
64516;BME280;50891;37.380;-122.076;2022-09-09T10:57:34;99806.00;;;31.90;31.10
64516;BME280;50891;37.380;-122.076;2022-09-09T11:00:06;99803.06;;;31.86;30.93
64516;BME280;50891;37.380;-122.076;2022-09-09T11:02:34;99774.50;;;31.70;31.16
64516;BME280;50891;37.380;-122.076;2022-09-09T11:08:31;99782.59;;;31.75;31.13
64516;BME280;50891;37.380;-122.076;2022-09-09T11:21:48;99787.66;;;31.63;31.43
64516;BME280;50891;37.380;-122.076;2022-09-09T11:30:04;99788.44;;;31.49;31.59
64516;BME280;50891;37.380;-122.076;2022-09-09T11:40:35;99770.19;;;31.12;32.05
64516;BME280;50891;37.380;-122.076;2022-09-09T11:43:13;99775.25;;;31.19;31.87
64516;BME280;50891;37.380;-122.076;2022-09-09T11:45:42;99766.97;;;31.10;32.06
64516;BME280;50891;37.380;-122.076;2022-09-09T11:48:37;99774.00;;;31.11;32.00
64516;BME280;50891;37.380;-122.076;2022-09-09T11:51:09;99773.56;;;31.04;32.25
64516;BME280;50891;37.380;-122.076;2022-09-09T11:53:54;99775.53;;;30.98;32.22
64516;BME280;50891;37.380;-122.076;2022-09-09T11:56:44;99770.69;;;30.95;32.10
64516;BME280;50891;37.380;-122.076;2022-09-09T11:59:37;99763.94;;;30.93;32.20
64516;BME280;50891;37.380;-122.076;2022-09-09T12:02:14;99764.59;;;30.84;32.29
64516;BME280;50891;37.380;-122.076;2022-09-09T12:05:06;99769.47;;;30.82;32.27
64516;BME280;50891;37.380;-122.076;2022-09-09T12:10:31;99765.50;;;30.75;32.45
64516;BME280;50891;37.380;-122.076;2022-09-09T12:15:35;99771.84;;;30.65;32.52
64516;BME280;50891;37.380;-122.076;2022-09-09T12:18:25;99764.56;;;30.60;32.75
64516;BME280;50891;37.380;-122.076;2022-09-09T12:30:02;99755.56;;;30.41;32.88
64516;BME280;50891;37.380;-122.076;2022-09-09T12:32:29;99729.69;;;30.24;32.78
64516;BME280;50891;37.380;-122.076;2022-09-09T12:35:20;99748.06;;;30.33;33.19
64516;BME280;50891;37.380;-122.076;2022-09-09T12:37:53;99740.22;;;30.31;33.16
64516;BME280;50891;37.380;-122.076;2022-09-09T12:40:25;99743.22;;;30.30;33.08
64516;BME280;50891;37.380;-122.076;2022-09-09T12:42:52;99752.72;;;30.27;33.34
64516;BME280;50891;37.380;-122.076;2022-09-09T12:45:25;99752.19;;;30.25;33.33
64516;BME280;50891;37.380;-122.076;2022-09-09T12:48:01;99754.66;;;30.21;33.32
64516;BME280;50891;37.380;-122.076;2022-09-09T12:50:36;99749.28;;;30.16;33.26
64516;BME280;50891;37.380;-122.076;2022-09-09T12:53:12;99749.28;;;30.16;33.63
64516;BME280;50891;37.380;-122.076;2022-09-09T12:58:29;99739.59;;;30.10;33.74
64516;BME280;50891;37.380;-122.076;2022-09-09T13:01:02;99745.59;;;30.07;33.67
64516;BME280;50891;37.380;-122.076;2022-09-09T13:03:33;99741.25;;;30.06;33.57
64516;BME280;50891;37.380;-122.076;2022-09-09T13:06:30;99737.50;;;30.02;33.62
64516;BME280;50891;37.380;-122.076;2022-09-09T13:08:59;99725.13;;;29.91;33.75
64516;BME280;50891;37.380;-122.076;2022-09-09T13:11:31;99728.09;;;29.94;33.86
64516;BME280;50891;37.380;-122.076;2022-09-09T13:14:02;99739.78;;;29.90;33.99
64516;BME280;50891;37.380;-122.076;2022-09-09T13:16:30;99731.69;;;29.85;33.80
64516;BME280;50891;37.380;-122.076;2022-09-09T13:19:02;99737.69;;;29.81;33.90
64516;BME280;50891;37.380;-122.076;2022-09-09T13:21:37;99734.47;;;29.79;33.99
64516;BME280;50891;37.380;-122.076;2022-09-09T13:24:06;99733.41;;;29.75;34.02
64516;BME280;50891;37.380;-122.076;2022-09-09T13:26:33;99739.09;;;29.74;33.95
64516;BME280;50891;37.380;-122.076;2022-09-09T13:29:17;99740.50;;;29.66;34.08
64516;BME280;50891;37.380;-122.076;2022-09-09T13:31:47;99735.13;;;29.61;34.19
64516;BME280;50891;37.380;-122.076;2022-09-09T13:34:30;99738.13;;;29.59;34.28
64516;BME280;50891;37.380;-122.076;2022-09-09T13:37:05;99737.34;;;29.54;34.29
64516;BME280;50891;37.380;-122.076;2022-09-09T13:39:34;99724.66;;;29.49;34.60
64516;BME280;50891;37.380;-122.076;2022-09-09T13:42:03;99726.03;;;29.47;34.51
64516;BME280;50891;37.380;-122.076;2022-09-09T13:44:33;99725.78;;;29.43;34.46
64516;BME280;50891;37.380;-122.076;2022-09-09T13:49:42;99737.47;;;29.38;34.66
64516;BME280;50891;37.380;-122.076;2022-09-09T13:52:11;99738.56;;;29.37;34.52
64516;BME280;50891;37.380;-122.076;2022-09-09T13:54:40;99735.59;;;29.34;34.77
64516;BME280;50891;37.380;-122.076;2022-09-09T13:57:23;99731.59;;;29.26;34.64
64516;BME280;50891;37.380;-122.076;2022-09-09T13:59:52;99735.63;;;29.29;34.63
64516;BME280;50891;37.380;-122.076;2022-09-09T14:02:18;99741.31;;;29.27;34.76
64516;BME280;50891;37.380;-122.076;2022-09-09T14:04:46;99741.09;;;29.24;34.82
64516;BME280;50891;37.380;-122.076;2022-09-09T14:07:17;99747.34;;;29.19;34.71
64516;BME280;50891;37.380;-122.076;2022-09-09T14:09:44;99756.00;;;29.16;34.85
64516;BME280;50891;37.380;-122.076;2022-09-09T14:12:16;99755.50;;;29.09;34.84
64516;BME280;50891;37.380;-122.076;2022-09-09T14:14:42;99757.94;;;29.05;35.03
64516;BME280;50891;37.380;-122.076;2022-09-09T14:17:09;99746.34;;;28.94;35.13
64516;BME280;50891;37.380;-122.076;2022-09-09T14:19:35;99762.03;;;28.97;35.10
64516;BME280;50891;37.380;-122.076;2022-09-09T14:22:03;99758.00;;;28.95;35.01
64516;BME280;50891;37.380;-122.076;2022-09-09T14:24:30;99764.50;;;28.94;34.98
64516;BME280;50891;37.380;-122.076;2022-09-09T14:26:56;99763.69;;;28.93;34.98
64516;BME280;50891;37.380;-122.076;2022-09-09T14:29:22;99757.75;;;28.91;34.89
64516;BME280;50891;37.380;-122.076;2022-09-09T14:31:52;99761.53;;;28.90;35.24
64516;BME280;50891;37.380;-122.076;2022-09-09T14:34:18;99766.13;;;28.90;35.29
64516;BME280;50891;37.380;-122.076;2022-09-09T14:36:44;99762.09;;;28.87;35.13
64516;BME280;50891;37.380;-122.076;2022-09-09T14:39:11;99770.78;;;28.84;35.36
64516;BME280;50891;37.380;-122.076;2022-09-09T14:41:37;99771.84;;;28.83;35.37
64516;BME280;50891;37.380;-122.076;2022-09-09T14:44:03;99747.28;;;28.69;35.64
64516;BME280;50891;37.380;-122.076;2022-09-09T14:46:30;99767.00;;;28.80;35.46
64516;BME280;50891;37.380;-122.076;2022-09-09T14:48:56;99779.44;;;28.81;35.38
64516;BME280;50891;37.380;-122.076;2022-09-09T14:51:24;99777.81;;;28.80;35.50
64516;BME280;50891;37.380;-122.076;2022-09-09T14:53:55;99776.72;;;28.81;35.59
64516;BME280;50891;37.380;-122.076;2022-09-09T14:56:25;99782.44;;;28.79;35.55
64516;BME280;50891;37.380;-122.076;2022-09-09T14:58:54;99788.66;;;28.80;35.81
64516;BME280;50891;37.380;-122.076;2022-09-09T15:01:21;99788.91;;;28.78;35.84
64516;BME280;50891;37.380;-122.076;2022-09-09T15:03:59;99791.09;;;28.76;36.00
64516;BME280;50891;37.380;-122.076;2022-09-09T15:06:32;99788.38;;;28.76;36.02
64516;BME280;50891;37.380;-122.076;2022-09-09T15:08:59;99793.00;;;28.76;36.22
64516;BME280;50891;37.380;-122.076;2022-09-09T15:11:27;99791.09;;;28.76;36.29
64516;BME280;50891;37.380;-122.076;2022-09-09T15:13:56;99792.44;;;28.74;36.37
64516;BME280;50891;37.380;-122.076;2022-09-09T15:16:26;99791.38;;;28.75;36.42
64516;BME280;50891;37.380;-122.076;2022-09-09T15:18:55;99794.34;;;28.73;36.61
64516;BME280;50891;37.380;-122.076;2022-09-09T15:21:24;99804.38;;;28.73;36.72
64516;BME280;50891;37.380;-122.076;2022-09-09T15:23:51;99800.06;;;28.72;36.85
64516;BME280;50891;37.380;-122.076;2022-09-09T15:26:18;99794.13;;;28.70;37.26
64516;BME280;50891;37.380;-122.076;2022-09-09T15:28:45;99766.00;;;28.55;37.31
64516;BME280;50891;37.380;-122.076;2022-09-09T15:31:18;99790.06;;;28.67;37.50
64516;BME280;50891;37.380;-122.076;2022-09-09T15:33:49;99787.09;;;28.64;37.62
64516;BME280;50891;37.380;-122.076;2022-09-09T15:36:19;99792.22;;;28.65;37.72
64516;BME280;50891;37.380;-122.076;2022-09-09T15:38:46;99788.69;;;28.65;37.79
64516;BME280;50891;37.380;-122.076;2022-09-09T15:41:13;99785.47;;;28.68;37.81
64516;BME280;50891;37.380;-122.076;2022-09-09T15:43:43;99779.25;;;28.67;37.89
64516;BME280;50891;37.380;-122.076;2022-09-09T15:46:32;99788.16;;;28.68;37.80
64516;BME280;50891;37.380;-122.076;2022-09-09T15:51:30;99776.25;;;28.69;37.90
64516;BME280;50891;37.380;-122.076;2022-09-09T15:53:58;99773.81;;;28.67;37.94
64516;BME280;50891;37.380;-122.076;2022-09-09T15:56:25;99774.63;;;28.68;37.88
64516;BME280;50891;37.380;-122.076;2022-09-09T15:59:02;99767.59;;;28.67;37.88
64516;BME280;50891;37.380;-122.076;2022-09-09T16:01:29;99736.53;;;28.54;37.92
64516;BME280;50891;37.380;-122.076;2022-09-09T16:03:57;99756.22;;;28.70;37.90
64516;BME280;50891;37.380;-122.076;2022-09-09T16:06:25;99759.75;;;28.70;38.16
64516;BME280;50891;37.380;-122.076;2022-09-09T16:08:54;99752.69;;;28.69;38.26
64516;BME280;50891;37.380;-122.076;2022-09-09T16:11:28;99748.38;;;28.68;38.20
64516;BME280;50891;37.380;-122.076;2022-09-09T16:13:55;99736.25;;;28.61;38.06
64516;BME280;50891;37.380;-122.076;2022-09-09T16:16:23;99747.00;;;28.71;38.21
64516;BME280;50891;37.380;-122.076;2022-09-09T16:18:56;99739.69;;;28.71;38.17
64516;BME280;50891;37.380;-122.076;2022-09-09T16:21:28;99740.53;;;28.72;38.11
64516;BME280;50891;37.380;-122.076;2022-09-09T16:23:55;99732.38;;;28.77;38.10
64516;BME280;50891;37.380;-122.076;2022-09-09T16:26:23;99742.09;;;28.78;38.23
64516;BME280;50891;37.380;-122.076;2022-09-09T16:28:49;99739.94;;;28.80;38.15
64516;BME280;50891;37.380;-122.076;2022-09-09T16:31:19;99742.06;;;28.83;37.96
64516;BME280;50891;37.380;-122.076;2022-09-09T16:33:47;99737.19;;;28.85;38.00
64516;BME280;50891;37.380;-122.076;2022-09-09T16:36:15;99736.94;;;28.87;38.00
64516;BME280;50891;37.380;-122.076;2022-09-09T16:38:42;99746.13;;;28.86;37.97
64516;BME280;50891;37.380;-122.076;2022-09-09T16:41:10;99743.72;;;28.84;37.94
64516;BME280;50891;37.380;-122.076;2022-09-09T16:43:37;99751.28;;;28.87;38.18
64516;BME280;50891;37.380;-122.076;2022-09-09T16:46:16;99755.91;;;28.82;38.22
64516;BME280;50891;37.380;-122.076;2022-09-09T16:48:44;99752.94;;;28.78;38.21
64516;BME280;50891;37.380;-122.076;2022-09-09T16:51:16;99751.06;;;28.73;38.36
64516;BME280;50891;37.380;-122.076;2022-09-09T16:53:42;99747.53;;;28.73;38.72
64516;BME280;50891;37.380;-122.076;2022-09-09T16:56:14;99751.31;;;28.77;38.61
64516;BME280;50891;37.380;-122.076;2022-09-09T16:58:40;99751.84;;;28.74;38.68
64516;BME280;50891;37.380;-122.076;2022-09-09T17:01:09;99741.06;;;28.69;38.81
64516;BME280;50891;37.380;-122.076;2022-09-09T17:03:40;99736.75;;;28.68;39.16
64516;BME280;50891;37.380;-122.076;2022-09-09T17:06:10;99735.63;;;28.74;39.09
64516;BME280;50891;37.380;-122.076;2022-09-09T17:08:38;99744.28;;;28.76;38.99
64516;BME280;50891;37.380;-122.076;2022-09-09T17:11:18;99740.75;;;28.75;39.04
64516;BME280;50891;37.380;-122.076;2022-09-09T17:13:46;99737.25;;;28.75;39.22
64516;BME280;50891;37.380;-122.076;2022-09-09T17:16:15;99748.66;;;28.72;39.39
64516;BME280;50891;37.380;-122.076;2022-09-09T17:18:41;99740.78;;;28.70;39.46
64516;BME280;50891;37.380;-122.076;2022-09-09T17:21:13;99743.22;;;28.72;39.55
64516;BME280;50891;37.380;-122.076;2022-09-09T17:23:41;99752.41;;;28.76;39.49
64516;BME280;50891;37.380;-122.076;2022-09-09T17:26:09;99743.75;;;28.69;39.44
64516;BME280;50891;37.380;-122.076;2022-09-09T17:28:37;99740.19;;;28.78;39.35
64516;BME280;50891;37.380;-122.076;2022-09-09T17:31:08;99738.63;;;28.72;39.59
64516;BME280;50891;37.380;-122.076;2022-09-09T17:33:38;99745.63;;;28.84;39.38
64516;BME280;50891;37.380;-122.076;2022-09-09T17:36:13;99752.91;;;28.83;39.56
64516;BME280;50891;37.380;-122.076;2022-09-09T17:38:40;99756.19;;;28.80;39.80
64516;BME280;50891;37.380;-122.076;2022-09-09T17:41:14;99756.13;;;28.90;39.55
64516;BME280;50891;37.380;-122.076;2022-09-09T17:43:41;99747.50;;;28.88;40.42